Time;durP1;ratioP1;P1;durP2;ratioP2;P2;SDS_P1;SDS_P2;PMS_P1;PMS_P2;Temp;Humidity;BMP_temperature;BMP_pressure;BME280_temperature;BME280_humidity;BME280_pressure;Samples;Min_cycle;Max_cycle;Signal;HPM_P1;HPM_P2
2021/05/23 00:02:20;;;;;;;1.77;0.45;;;13.10;59.20;;;;;;4971615;28;20038;-78
2021/05/23 00:04:46;;;;;;;0.15;0.00;;;13.20;59.30;;;;;;4987823;28;20038;-78
2021/05/23 00:07:12;;;;;;;0.75;0.10;;;13.10;59.30;;;;;;4989420;28;20514;-79
2021/05/23 00:09:38;;;;;;;0.10;0.03;;;13.10;59.30;;;;;;4988029;28;20054;-78
2021/05/23 00:12:06;;;;;;;0.00;0.00;;;13.10;59.40;;;;;;4978146;28;20045;-78
2021/05/23 00:14:32;;;;;;;0.00;0.00;;;13.10;59.40;;;;;;4956338;28;20039;-78
2021/05/23 00:16:58;;;;;;;0.00;0.00;;;13.00;59.50;;;;;;4974464;28;20054;-78
2021/05/23 00:19:24;;;;;;;0.00;0.00;;;13.00;59.60;;;;;;5005279;28;20026;-78
2021/05/23 00:21:50;;;;;;;0.05;0.05;;;13.00;59.60;;;;;;4973451;28;20369;-78
2021/05/23 00:24:16;;;;;;;0.00;0.00;;;13.00;59.70;;;;;;5004124;28;20038;-78
2021/05/23 00:26:43;;;;;;;0.10;0.00;;;13.00;59.70;;;;;;5005578;28;20405;-78
2021/05/23 00:29:09;;;;;;;0.00;0.00;;;13.00;59.80;;;;;;4975106;28;20026;-78
2021/05/23 00:31:35;;;;;;;0.30;0.00;;;12.90;59.80;;;;;;4999090;28;20426;-78
2021/05/23 00:34:02;;;;;;;0.28;0.10;;;12.90;59.90;;;;;;5004540;28;20361;-78
2021/05/23 00:36:28;;;;;;;0.45;0.10;;;12.90;59.90;;;;;;4981513;28;20396;-78
2021/05/23 00:38:54;;;;;;;0.32;0.10;;;12.90;60.00;;;;;;4973504;28;20035;-78
2021/05/23 00:41:20;;;;;;;0.05;0.00;;;12.80;60.00;;;;;;5005532;28;20038;-79
2021/05/23 00:43:46;;;;;;;1.38;0.00;;;12.90;61.00;;;;;;5007026;28;20031;-78
2021/05/23 00:46:12;;;;;;;0.32;0.10;;;12.80;60.10;;;;;;5004013;28;20045;-78
2021/05/23 00:48:38;;;;;;;0.52;0.28;;;12.80;60.20;;;;;;4977013;28;20035;-78
2021/05/23 00:51:05;;;;;;;0.73;0.05;;;12.80;60.30;;;;;;4956113;28;20484;-79
2021/05/23 00:53:31;;;;;;;0.00;0.00;;;12.80;60.30;;;;;;4987005;28;20026;-78
2021/05/23 00:55:57;;;;;;;0.00;0.00;;;12.80;60.40;;;;;;4957582;28;20057;-79
2021/05/23 00:58:23;;;;;;;0.00;0.00;;;12.70;60.50;;;;;;4981166;28;20499;-78
2021/05/23 01:00:55;;;;;;;0.13;0.00;;;12.70;60.50;;;;;;4975671;28;20035;-78
2021/05/23 01:03:28;;;;;;;0.00;0.00;;;12.70;60.70;;;;;;4972623;28;20038;-78
2021/05/23 01:06:06;;;;;;;0.85;0.17;;;12.70;60.70;;;;;;4976948;28;20031;-79
2021/05/23 01:08:33;;;;;;;0.00;0.00;;;12.70;60.80;;;;;;4988357;28;20023;-78
2021/05/23 01:11:06;;;;;;;0.00;0.00;;;12.60;60.80;;;;;;4970713;28;20041;-78
2021/05/23 01:13:36;;;;;;;0.00;0.00;;;12.60;60.80;;;;;;4973248;28;20027;-78
2021/05/23 01:16:09;;;;;;;0.57;0.57;;;12.60;60.90;;;;;;4979827;28;20042;-78
2021/05/23 01:19:01;;;;;;;0.00;0.00;;;12.60;61.00;;;;;;4970229;28;20057;-78
2021/05/23 01:21:28;;;;;;;0.00;0.00;;;12.60;61.10;;;;;;4969874;28;20030;-78
2021/05/23 01:24:02;;;;;;;0.00;0.00;;;12.60;61.00;;;;;;4957614;28;20050;-78
2021/05/23 01:26:37;;;;;;;0.20;0.08;;;12.50;61.10;;;;;;4986737;28;20054;-78
2021/05/23 01:29:07;;;;;;;0.00;0.00;;;12.50;61.20;;;;;;4990748;28;20492;-78
2021/05/23 01:31:33;;;;;;;0.00;0.00;;;12.50;61.20;;;;;;4976364;28;20107;-78
2021/05/23 01:34:00;;;;;;;4.18;0.10;;;12.50;61.30;;;;;;4971694;28;20035;-78
2021/05/23 01:36:31;;;;;;;0.00;0.00;;;12.40;61.30;;;;;;4984102;28;20183;-78
2021/05/23 01:38:58;;;;;;;;;;;12.40;61.40;;;;;;4963787;28;20516;-78
2021/05/23 01:41:24;;;;;;;0.90;0.10;;;12.40;61.40;;;;;;4978894;28;19913;-78
2021/05/23 01:43:50;;;;;;;0.00;0.00;;;12.40;61.30;;;;;;4965247;28;20534;-78
2021/05/23 01:46:16;;;;;;;7.60;0.15;;;12.40;61.40;;;;;;4976420;28;20035;-78
2021/05/23 01:48:42;;;;;;;3.25;0.10;;;12.40;61.50;;;;;;4974520;28;20058;-78
2021/05/23 01:51:09;;;;;;;5.47;0.17;;;12.30;61.50;;;;;;4981324;28;20049;-78
2021/05/23 01:53:35;;;;;;;6.13;0.10;;;12.40;61.60;;;;;;4986992;28;20039;-78
2021/05/23 01:56:02;;;;;;;1.80;0.35;;;12.40;61.60;;;;;;4969855;28;20066;-78
2021/05/23 01:58:28;;;;;;;0.00;0.00;;;12.40;61.80;;;;;;4953922;28;20039;-78
2021/05/23 02:00:54;;;;;;;0.28;0.00;;;12.30;61.80;;;;;;4976876;28;20039;-79
2021/05/23 02:03:22;;;;;;;0.00;0.00;;;12.30;61.90;;;;;;4985321;28;20042;-78
2021/05/23 02:05:50;;;;;;;15.15;0.30;;;12.30;62.00;;;;;;4980646;28;20042;-78
2021/05/23 02:08:18;;;;;;;0.00;0.00;;;12.30;62.10;;;;;;4965372;28;20487;-78
2021/05/23 02:10:44;;;;;;;0.00;0.00;;;12.20;62.10;;;;;;4968959;28;20039;-79
2021/05/23 02:13:10;;;;;;;0.10;0.00;;;12.20;62.10;;;;;;4982507;28;20656;-78
2021/05/23 02:15:37;;;;;;;0.10;0.00;;;12.20;62.20;;;;;;4987018;28;20039;-78
2021/05/23 02:18:03;;;;;;;0.20;0.00;;;12.20;62.30;;;;;;4966291;28;20057;-78
2021/05/23 02:20:30;;;;;;;8.57;0.10;;;12.20;62.30;;;;;;4967329;28;20041;-78
2021/05/23 02:23:01;;;;;;;0.00;0.00;;;12.20;62.30;;;;;;4961081;28;20492;-77
2021/05/23 02:25:28;;;;;;;0.20;0.10;;;12.20;62.50;;;;;;4963880;28;20026;-78
2021/05/23 02:27:58;;;;;;;0.00;0.00;;;12.10;62.40;;;;;;4965053;28;20040;-78
2021/05/23 02:30:24;;;;;;;0.38;0.00;;;12.10;62.50;;;;;;4969301;28;20043;-78
2021/05/23 02:32:50;;;;;;;0.00;0.00;;;12.10;62.50;;;;;;4970588;28;20038;-78
2021/05/23 02:35:19;;;;;;;0.00;0.00;;;12.10;62.60;;;;;;4961083;28;21436;-78
2021/05/23 02:37:45;;;;;;;0.40;0.00;;;12.10;62.60;;;;;;4976650;28;20046;-78
2021/05/23 02:40:13;;;;;;;0.00;0.00;;;12.10;62.70;;;;;;4971625;28;20037;-78
2021/05/23 02:42:39;;;;;;;0.00;0.00;;;12.10;62.80;;;;;;4951973;28;20551;-78
2021/05/23 02:45:07;;;;;;;0.00;0.00;;;12.00;62.80;;;;;;4976927;28;20054;-78
2021/05/23 02:47:33;;;;;;;0.08;0.00;;;12.00;62.80;;;;;;4987348;28;20027;-77
2021/05/23 02:49:59;;;;;;;0.00;0.00;;;12.00;62.80;;;;;;4988663;28;20480;-78
2021/05/23 02:52:25;;;;;;;1.02;0.10;;;12.00;62.90;;;;;;4974391;28;20161;-78
2021/05/23 02:54:52;;;;;;;1.75;0.17;;;12.00;63.00;;;;;;4975780;28;20038;-78
2021/05/23 02:57:18;;;;;;;0.05;0.00;;;12.00;63.10;;;;;;4986764;28;20400;-78
2021/05/23 02:59:44;;;;;;;0.00;0.00;;;11.90;63.10;;;;;;4973622;28;20033;-78
2021/05/23 03:02:11;;;;;;;0.08;0.00;;;11.90;63.20;;;;;;4971974;28;20417;-78
2021/05/23 03:04:37;;;;;;;0.00;0.00;;;11.90;63.30;;;;;;4977514;28;20411;-78
2021/05/23 03:07:03;;;;;;;0.20;0.08;;;11.90;63.30;;;;;;4957905;28;20500;-78
2021/05/23 03:09:29;;;;;;;0.63;0.10;;;11.80;63.70;;;;;;4969658;28;20527;-78
2021/05/23 03:11:55;;;;;;;0.00;0.00;;;11.80;63.50;;;;;;4988105;28;20432;-78
2021/05/23 03:14:21;;;;;;;0.00;0.00;;;11.80;63.50;;;;;;4975636;28;20042;-78
2021/05/23 03:16:48;;;;;;;0.00;0.00;;;11.80;63.60;;;;;;4971569;28;20051;-78
2021/05/23 03:19:14;;;;;;;4.47;0.10;;;11.80;63.60;;;;;;4988734;28;20038;-78
2021/05/23 03:21:40;;;;;;;0.73;0.03;;;11.80;63.70;;;;;;4963910;28;20104;-78
2021/05/23 03:24:06;;;;;;;2.05;0.00;;;11.80;63.70;;;;;;4973136;28;20031;-77
2021/05/23 03:26:33;;;;;;;0.00;0.00;;;11.70;63.70;;;;;;4962221;28;20039;-78
2021/05/23 03:28:59;;;;;;;0.00;0.00;;;11.70;63.70;;;;;;4972447;28;20027;-78
2021/05/23 03:31:25;;;;;;;0.47;0.00;;;11.70;63.80;;;;;;4968117;28;20030;-78
2021/05/23 03:33:51;;;;;;;0.20;0.10;;;11.70;63.90;;;;;;4984843;28;20039;-78
2021/05/23 03:36:17;;;;;;;0.00;0.00;;;11.70;63.90;;;;;;4988375;28;20037;-79
2021/05/23 03:38:44;;;;;;;0.00;0.00;;;11.60;63.90;;;;;;4979393;28;20038;-78
2021/05/23 03:41:11;;;;;;;0.35;0.00;;;11.60;64.00;;;;;;4977734;28;20038;-78
2021/05/23 03:43:37;;;;;;;1.85;0.20;;;11.60;64.10;;;;;;4981515;28;20038;-78
2021/05/23 03:46:03;;;;;;;2.70;0.08;;;11.60;64.10;;;;;;4979252;28;20051;-78
2021/05/23 03:48:29;;;;;;;0.00;0.00;;;11.60;64.20;;;;;;4976448;28;20026;-79
2021/05/23 03:50:55;;;;;;;1.55;0.30;;;11.50;64.30;;;;;;4974902;28;20045;-78
2021/05/23 03:53:21;;;;;;;0.00;0.00;;;11.50;64.40;;;;;;4970645;28;20035;-79
2021/05/23 03:55:49;;;;;;;0.20;0.00;;;11.50;64.40;;;;;;4976323;28;20026;-78
2021/05/23 03:58:16;;;;;;;0.00;0.00;;;11.50;64.40;;;;;;4974551;28;20042;-78
2021/05/23 04:00:42;;;;;;;0.13;0.10;;;11.50;64.40;;;;;;4977647;28;20039;-78
2021/05/23 04:03:08;;;;;;;0.10;0.00;;;11.50;64.40;;;;;;4988943;28;20045;-80
2021/05/23 04:05:35;;;;;;;0.20;0.00;;;11.40;64.50;;;;;;4978039;28;20035;-79
2021/05/23 04:08:01;;;;;;;0.00;0.00;;;11.40;64.60;;;;;;4975683;28;20046;-80
2021/05/23 04:10:34;;;;;;;0.00;0.00;;;11.40;64.60;;;;;;4974862;28;20420;-80
2021/05/23 04:13:02;;;;;;;0.00;0.00;;;11.40;64.70;;;;;;4977432;28;20047;-80
2021/05/23 04:15:28;;;;;;;0.08;0.00;;;11.40;64.70;;;;;;4974804;28;20388;-80
2021/05/23 04:17:54;;;;;;;0.00;0.00;;;11.30;64.70;;;;;;4978256;28;20411;-80
2021/05/23 04:20:21;;;;;;;1.00;0.08;;;11.40;64.70;;;;;;4974643;28;20031;-79
2021/05/23 04:22:47;;;;;;;0.00;0.00;;;11.30;64.70;;;;;;4966957;28;20031;-80
2021/05/23 04:25:14;;;;;;;6.30;0.30;;;11.30;64.80;;;;;;4968330;28;20509;-80
2021/05/23 04:27:45;;;;;;;0.98;0.68;;;11.30;64.80;;;;;;4974323;28;20039;-80
2021/05/23 04:30:12;;;;;;;0.00;0.00;;;11.30;64.80;;;;;;4974507;28;20519;-79
2021/05/23 04:32:38;;;;;;;0.73;0.30;;;11.30;64.80;;;;;;4973647;28;20381;-79
2021/05/23 04:35:05;;;;;;;0.10;0.05;;;11.30;64.90;;;;;;4973325;28;20476;-80
2021/05/23 04:37:31;;;;;;;0.63;0.20;;;11.30;64.90;;;;;;4972547;28;20053;-79
2021/05/23 04:39:57;;;;;;;0.63;0.20;;;11.30;64.90;;;;;;4971501;28;20042;-80
2021/05/23 04:42:23;;;;;;;0.00;0.00;;;11.30;64.90;;;;;;4965508;28;20035;-79
2021/05/23 04:44:50;;;;;;;6.43;0.75;;;11.30;64.90;;;;;;4972019;28;20501;-79
2021/05/23 04:47:16;;;;;;;1.48;0.40;;;11.30;64.90;;;;;;4958983;28;20051;-80
2021/05/23 04:49:42;;;;;;;0.08;0.08;;;11.30;64.90;;;;;;4953543;28;20046;-80
2021/05/23 04:52:10;;;;;;;0.00;0.00;;;11.40;65.00;;;;;;4968775;28;20050;-80
2021/05/23 04:54:36;;;;;;;0.30;0.10;;;11.40;65.00;;;;;;4968867;28;20388;-79
2021/05/23 04:57:02;;;;;;;2.45;0.30;;;11.40;64.90;;;;;;4954451;28;20046;-80
2021/05/23 04:59:28;;;;;;;0.00;0.00;;;11.40;65.00;;;;;;4952960;28;20038;-79
2021/05/23 05:01:55;;;;;;;3.90;0.08;;;11.50;65.00;;;;;;4973217;28;20057;-80
2021/05/23 05:04:21;;;;;;;0.77;0.40;;;11.50;65.00;;;;;;4987383;28;20047;-80
2021/05/23 05:06:47;;;;;;;4.57;0.00;;;11.50;64.90;;;;;;4972930;28;20373;-80
2021/05/23 05:09:13;;;;;;;0.00;0.00;;;11.60;64.90;;;;;;4973361;28;20428;-80
2021/05/23 05:11:39;;;;;;;0.00;0.00;;;11.70;64.90;;;;;;4971825;28;20043;-80
2021/05/23 05:14:05;;;;;;;0.00;0.00;;;11.80;64.60;;;;;;4972115;28;20097;-80
2021/05/23 05:16:31;;;;;;;1.08;0.10;;;12.10;64.40;;;;;;4964279;28;20043;-80
2021/05/23 05:18:58;;;;;;;6.07;0.20;;;12.40;64.10;;;;;;4984345;28;20055;-81
2021/05/23 05:21:24;;;;;;;0.38;0.28;;;12.60;63.60;;;;;;4964874;28;20043;-81
2021/05/23 05:23:50;;;;;;;0.63;0.05;;;12.90;63.30;;;;;;4952455;28;20031;-80
2021/05/23 05:26:16;;;;;;;0.65;0.00;;;13.20;63.00;;;;;;4953108;28;20028;-79
2021/05/23 05:28:43;;;;;;;0.22;0.00;;;13.40;62.70;;;;;;4959952;28;20042;-80
2021/05/23 05:31:10;;;;;;;0.22;0.00;;;13.70;62.40;;;;;;4963643;28;20043;-80
2021/05/23 05:33:36;;;;;;;1.90;0.17;;;13.90;62.20;;;;;;4972589;28;20419;-80
2021/05/23 05:36:02;;;;;;;0.00;0.00;;;14.10;61.90;;;;;;4973582;28;20039;-80
2021/05/23 05:38:28;;;;;;;0.45;0.20;;;14.30;61.70;;;;;;4977946;28;20396;-80
2021/05/23 05:40:54;;;;;;;0.00;0.00;;;14.50;61.50;;;;;;4975914;28;20038;-80
2021/05/23 05:43:21;;;;;;;0.10;0.00;;;14.60;61.30;;;;;;4975880;28;20058;-80
2021/05/23 05:45:47;;;;;;;0.52;0.00;;;14.80;61.20;;;;;;4973835;28;20058;-79
2021/05/23 05:48:14;;;;;;;0.30;0.10;;;14.90;61.00;;;;;;4971585;28;20061;-80
2021/05/23 05:50:40;;;;;;;0.43;0.10;;;15.10;60.90;;;;;;4959120;28;20039;-81
2021/05/23 05:53:06;;;;;;;1.65;0.43;;;15.20;60.60;;;;;;4956336;28;20028;-80
2021/05/23 05:55:32;;;;;;;0.15;0.00;;;15.40;60.50;;;;;;4987449;28;20046;-80
2021/05/23 05:57:58;;;;;;;0.00;0.00;;;15.50;60.30;;;;;;4954594;28;20042;-80
2021/05/23 06:00:24;;;;;;;0.10;0.00;;;15.60;60.20;;;;;;4968142;28;20039;-80
2021/05/23 06:02:50;;;;;;;0.52;0.20;;;15.80;60.10;;;;;;5004903;28;20035;-80
2021/05/23 06:05:16;;;;;;;0.20;0.00;;;15.90;59.90;;;;;;4974053;28;20030;-81
2021/05/23 06:07:43;;;;;;;0.63;0.10;;;16.00;59.80;;;;;;4975587;28;20027;-80
2021/05/23 06:10:10;;;;;;;1.10;0.17;;;16.00;59.80;;;;;;4974161;28;20042;-81
2021/05/23 06:12:36;;;;;;;0.15;0.05;;;16.00;59.90;;;;;;4982131;28;20492;-81
2021/05/23 06:15:03;;;;;;;0.08;0.00;;;16.00;60.70;;;;;;4979108;28;20043;-80
2021/05/23 06:17:29;;;;;;;0.00;0.00;;;16.10;60.00;;;;;;4970081;28;20027;-81
2021/05/23 06:19:55;;;;;;;0.22;0.00;;;16.20;59.90;;;;;;4975169;28;20035;-81
2021/05/23 06:22:22;;;;;;;1.25;0.25;;;16.30;59.80;;;;;;4973944;28;20054;-79
2021/05/23 06:24:48;;;;;;;0.45;0.10;;;16.40;59.90;;;;;;4975232;28;20053;-85
2021/05/23 06:27:14;;;;;;;0.20;0.13;;;16.50;59.90;;;;;;4973374;28;20035;-83
2021/05/23 06:29:40;;;;;;;0.05;0.00;;;16.60;59.80;;;;;;4973728;28;20031;-84
2021/05/23 06:32:06;;;;;;;0.65;0.00;;;16.70;59.70;;;;;;4972023;28;20049;-83
2021/05/23 06:34:33;;;;;;;0.00;0.00;;;16.90;59.60;;;;;;4969023;28;20043;-84
2021/05/23 06:36:59;;;;;;;18.30;0.57;;;17.00;59.50;;;;;;4979512;28;20383;-83
2021/05/23 06:39:25;;;;;;;0.20;0.00;;;17.10;59.50;;;;;;4982995;28;20042;-81
2021/05/23 06:41:52;;;;;;;1.55;0.10;;;17.30;59.40;;;;;;4980790;28;20522;-81
2021/05/23 06:44:18;;;;;;;0.52;0.10;;;17.50;59.20;;;;;;4974666;28;20058;-81
2021/05/23 06:46:45;;;;;;;0.22;0.03;;;17.60;59.10;;;;;;4969785;28;20043;-81
2021/05/23 06:49:11;;;;;;;0.10;0.00;;;17.80;58.90;;;;;;4975779;28;20043;-80
2021/05/23 06:51:37;;;;;;;4.80;0.13;;;17.80;58.80;;;;;;4990356;28;20045;-80
2021/05/23 06:54:04;;;;;;;1.90;0.35;;;17.80;58.90;;;;;;4977371;28;20031;-80
2021/05/23 06:56:31;;;;;;;0.00;0.00;;;17.90;58.90;;;;;;4976306;28;20385;-80
2021/05/23 06:58:57;;;;;;;0.10;0.00;;;17.90;58.80;;;;;;4970452;28;20131;-79
2021/05/23 07:01:23;;;;;;;0.00;0.00;;;18.00;58.70;;;;;;4974185;28;20042;-80
2021/05/23 07:03:49;;;;;;;0.00;0.00;;;18.00;58.60;;;;;;4979902;28;20051;-79
2021/05/23 07:06:15;;;;;;;12.57;0.10;;;18.10;58.60;;;;;;4988737;28;20038;-80
2021/05/23 07:08:41;;;;;;;0.20;0.00;;;18.20;58.50;;;;;;4979561;28;20026;-76
2021/05/23 07:11:07;;;;;;;0.00;0.00;;;18.40;58.40;;;;;;4973278;28;20426;-80
2021/05/23 07:13:33;;;;;;;0.10;0.00;;;18.50;58.10;;;;;;4975196;28;20480;-80
2021/05/23 07:15:59;;;;;;;0.00;0.00;;;18.60;58.00;;;;;;4975533;28;20039;-78
2021/05/23 07:18:25;;;;;;;4.30;0.00;;;18.60;57.90;;;;;;4978809;28;20046;-79
2021/05/23 07:20:52;;;;;;;0.00;0.00;;;18.60;57.90;;;;;;4978036;28;20042;-78
2021/05/23 07:23:18;;;;;;;0.00;0.00;;;18.70;57.80;;;;;;4975363;28;20107;-80
2021/05/23 07:25:44;;;;;;;7.72;0.08;;;18.60;57.80;;;;;;4975060;28;20035;-86
2021/05/23 07:28:10;;;;;;;1.25;0.08;;;18.70;57.80;;;;;;4973047;28;20035;-84
2021/05/23 07:30:36;;;;;;;0.20;0.10;;;18.70;57.80;;;;;;4988268;28;20484;-78
2021/05/23 07:33:03;;;;;;;0.00;0.00;;;18.70;57.60;;;;;;4986136;28;20035;-78
2021/05/23 07:35:29;;;;;;;0.05;0.03;;;18.80;57.50;;;;;;4974373;28;20047;-80
2021/05/23 07:37:55;;;;;;;4.72;0.20;;;18.80;57.60;;;;;;4973824;28;20058;-79
2021/05/23 07:40:21;;;;;;;0.00;0.00;;;18.60;57.60;;;;;;4970689;28;20473;-79
2021/05/23 07:42:47;;;;;;;0.00;0.00;;;18.50;58.30;;;;;;4975270;28;20054;-79
2021/05/23 07:45:14;;;;;;;0.08;0.00;;;18.30;58.10;;;;;;4980897;28;20031;-80
2021/05/23 07:47:40;;;;;;;0.10;0.00;;;18.20;58.30;;;;;;4980281;28;20034;-80
2021/05/23 07:50:08;;;;;;;5.25;0.00;;;18.10;58.30;;;;;;4982780;28;20023;-81
2021/05/23 07:52:35;;;;;;;0.20;0.03;;;18.10;58.40;;;;;;4974919;28;20085;-78
2021/05/23 07:55:01;;;;;;;0.00;0.00;;;18.00;58.30;;;;;;4982860;28;20083;-80
2021/05/23 07:57:27;;;;;;;0.00;0.00;;;17.90;58.30;;;;;;4974218;28;20049;-79
2021/05/23 07:59:53;;;;;;;0.00;0.00;;;17.90;58.50;;;;;;4979319;28;20039;-80
2021/05/23 08:02:19;;;;;;;2.17;0.00;;;17.90;58.50;;;;;;4977667;28;20031;-81
2021/05/23 08:04:45;;;;;;;2.35;0.43;;;17.80;58.40;;;;;;4973290;28;20046;-81
2021/05/23 08:07:11;;;;;;;0.38;0.05;;;17.80;58.40;;;;;;4988380;28;20039;-82
2021/05/23 08:09:38;;;;;;;0.30;0.10;;;17.80;58.50;;;;;;4972224;28;20034;-82
2021/05/23 08:12:04;;;;;;;0.08;0.00;;;17.70;58.50;;;;;;4972265;28;20054;-81
2021/05/23 08:14:30;;;;;;;6.50;0.20;;;17.60;58.50;;;;;;4988694;28;20484;-85
2021/05/23 08:16:56;;;;;;;0.20;0.00;;;17.50;58.60;;;;;;4971706;28;20039;-83
2021/05/23 08:19:22;;;;;;;0.10;0.00;;;17.50;58.70;;;;;;4974537;28;20070;-81
2021/05/23 08:21:48;;;;;;;0.38;0.08;;;17.50;58.60;;;;;;4976510;28;20030;-82
2021/05/23 08:24:15;;;;;;;1.00;0.15;;;17.60;58.50;;;;;;4987504;28;20057;-83
2021/05/23 08:26:41;;;;;;;0.15;0.00;;;17.80;58.20;;;;;;4972455;28;20416;-80
2021/05/23 08:29:07;;;;;;;0.03;0.00;;;18.00;57.80;;;;;;4971294;28;20039;-80
2021/05/23 08:31:33;;;;;;;0.10;0.00;;;18.20;57.40;;;;;;4970819;28;20042;-81
2021/05/23 08:33:59;;;;;;;0.88;0.20;;;18.40;57.20;;;;;;4970943;28;20026;-79
2021/05/23 08:36:25;;;;;;;0.10;0.00;;;18.70;56.80;;;;;;4971618;28;20068;-78
2021/05/23 08:38:52;;;;;;;0.05;0.00;;;18.90;56.40;;;;;;4987125;28;20034;-79
2021/05/23 08:41:18;;;;;;;0.00;0.00;;;19.00;56.30;;;;;;4970988;28;20033;-79
2021/05/23 08:43:45;;;;;;;0.00;0.00;;;18.90;56.40;;;;;;4970909;28;20027;-79
2021/05/23 08:46:12;;;;;;;1.65;0.10;;;18.90;56.40;;;;;;4975413;28;20045;-79
2021/05/23 08:48:38;;;;;;;0.20;0.00;;;18.80;56.50;;;;;;4975717;28;20031;-79
2021/05/23 08:51:04;;;;;;;2.65;0.30;;;18.70;56.50;;;;;;4979445;28;20023;-79
2021/05/23 08:53:30;;;;;;;0.00;0.00;;;18.80;56.50;;;;;;4959612;28;20507;-78
2021/05/23 08:55:56;;;;;;;0.10;0.00;;;18.80;56.30;;;;;;4976943;28;20030;-81
2021/05/23 08:58:24;;;;;;;0.45;0.20;;;18.90;56.30;;;;;;4952308;28;20047;-81
2021/05/23 09:00:50;;;;;;;0.60;0.03;;;18.90;56.20;;;;;;4985995;28;20047;-79
2021/05/23 09:03:17;;;;;;;0.00;0.00;;;19.00;56.00;;;;;;4974097;28;20461;-79
2021/05/23 09:05:48;;;;;;;0.15;0.10;;;19.10;55.80;;;;;;4982763;28;20051;-79
2021/05/23 09:08:19;;;;;;;0.22;0.03;;;19.40;55.60;;;;;;4971418;28;20026;-79
2021/05/23 09:10:46;;;;;;;0.00;0.00;;;19.70;55.20;;;;;;4960089;28;20049;-79
2021/05/23 09:13:13;;;;;;;0.63;0.08;;;19.90;54.80;;;;;;4970163;28;20036;-80
2021/05/23 09:15:39;;;;;;;0.00;0.00;;;20.00;54.50;;;;;;4987175;28;20042;-80
2021/05/23 09:18:10;;;;;;;0.00;0.00;;;20.30;54.30;;;;;;4967613;28;20039;-80
2021/05/23 09:20:41;;;;;;;0.20;0.00;;;20.40;54.00;;;;;;4983764;28;20030;-80
2021/05/23 09:23:24;;;;;;;0.20;0.00;;;20.40;53.90;;;;;;4970740;28;20083;-80
2021/05/23 09:25:51;;;;;;;0.00;0.00;;;20.50;53.80;;;;;;4973399;28;20414;-80
2021/05/23 09:28:30;;;;;;;0.38;0.10;;;20.50;53.60;;;;;;4972342;28;20037;-79
2021/05/23 09:30:56;;;;;;;0.00;0.00;;;20.60;53.60;;;;;;4974535;28;20035;-79
2021/05/23 09:33:23;;;;;;;0.13;0.13;;;20.70;53.50;;;;;;4971322;28;20026;-79
2021/05/23 09:35:49;;;;;;;0.00;0.00;;;20.80;53.20;;;;;;4987777;28;20038;-79
2021/05/23 09:38:16;;;;;;;0.30;0.00;;;20.90;53.10;;;;;;4976308;28;20041;-79
2021/05/23 09:40:43;;;;;;;3.78;0.10;;;20.90;52.90;;;;;;4969105;28;20026;-79
2021/05/23 09:43:10;;;;;;;0.00;0.00;;;20.90;52.90;;;;;;4976397;28;20031;-78
2021/05/23 09:45:49;;;;;;;0.38;0.08;;;20.70;53.00;;;;;;4966466;28;20049;-84
2021/05/23 09:48:19;;;;;;;0.20;0.10;;;20.60;53.20;;;;;;4973676;28;20034;-84
2021/05/23 09:50:46;;;;;;;0.10;0.00;;;20.70;53.10;;;;;;4969313;28;20130;-84
2021/05/23 09:53:32;;;;;;;3.10;0.17;;;20.80;53.00;;;;;;4975426;28;20035;-89
2021/05/23 09:56:08;;;;;;;0.00;0.00;;;20.80;52.80;;;;;;4971626;28;20034;-90
2021/05/23 09:58:43;;;;;;;1.15;0.13;;;21.00;52.70;;;;;;4978589;28;20624;-80
2021/05/23 10:01:11;;;;;;;0.00;0.00;;;21.00;52.40;;;;;;4972302;28;20407;-79
2021/05/23 10:03:40;;;;;;;0.00;0.00;;;20.90;52.50;;;;;;4970203;28;20046;-81
2021/05/23 10:06:08;;;;;;;0.20;0.00;;;20.80;52.70;;;;;;4970945;28;20027;-80
2021/05/23 10:08:34;;;;;;;0.00;0.00;;;20.70;52.80;;;;;;4956546;28;20043;-80
2021/05/23 10:11:00;;;;;;;0.10;0.00;;;20.70;52.90;;;;;;4973169;28;20035;-78
2021/05/23 10:13:26;;;;;;;3.25;0.25;;;20.70;52.90;;;;;;4985123;28;20043;-79
2021/05/23 10:15:53;;;;;;;2.17;0.10;;;20.70;52.60;;;;;;4970357;28;20031;-78
2021/05/23 10:18:25;;;;;;;0.38;0.00;;;20.60;52.70;;;;;;4987269;28;20035;-79
2021/05/23 10:20:56;;;;;;;0.00;0.00;;;20.50;52.80;;;;;;4955223;28;20043;-79
2021/05/23 10:23:28;;;;;;;0.25;0.15;;;20.40;52.90;;;;;;4974310;28;20038;-78
2021/05/23 10:25:56;;;;;;;0.00;0.00;;;20.20;53.10;;;;;;4973490;28;20046;-82
2021/05/23 10:28:22;;;;;;;2.65;0.03;;;20.00;53.20;;;;;;4973199;28;20038;-77
2021/05/23 10:30:53;;;;;;;0.45;0.10;;;20.00;53.30;;;;;;4974250;28;20031;-80
2021/05/23 10:33:20;;;;;;;0.00;0.00;;;20.10;53.10;;;;;;4988740;28;20376;-78
2021/05/23 10:35:49;;;;;;;0.00;0.00;;;20.30;52.80;;;;;;4974778;28;20042;-79
2021/05/23 10:38:16;;;;;;;0.00;0.00;;;20.50;52.40;;;;;;4972883;28;20035;-78
2021/05/23 10:40:59;;;;;;;0.10;0.00;;;20.60;52.20;;;;;;4973567;28;20034;-81
2021/05/23 10:43:30;;;;;;;0.57;0.20;;;20.80;51.90;;;;;;4990003;28;20042;-81
2021/05/23 10:46:13;;;;;;;0.10;0.00;;;21.00;51.70;;;;;;4976077;28;20051;-81
2021/05/23 10:48:50;;;;;;;0.00;0.00;;;21.20;51.50;;;;;;4986338;28;20377;-83
2021/05/23 10:51:17;;;;;;;1.88;0.10;;;21.30;51.30;;;;;;5000316;28;20061;-82
2021/05/23 10:53:43;;;;;;;1.65;0.10;;;21.40;51.20;;;;;;4979104;28;20045;-82
2021/05/23 10:56:18;;;;;;;0.00;0.00;;;21.50;51.10;;;;;;4974679;28;20042;-82
2021/05/23 10:59:00;;;;;;;0.13;0.05;;;21.60;51.00;;;;;;4974937;28;20038;-81
2021/05/23 11:01:43;;;;;;;1.30;0.03;;;21.70;50.90;;;;;;4967567;28;20035;-81
2021/05/23 11:04:19;;;;;;;2.47;0.45;;;21.80;50.70;;;;;;4974059;28;20033;-79
2021/05/23 11:06:47;;;;;;;0.15;0.00;;;21.70;50.70;;;;;;5002111;28;20388;-80
2021/05/23 11:09:24;;;;;;;3.30;0.25;;;21.80;50.70;;;;;;4975584;28;20031;-80
2021/05/23 11:11:50;;;;;;;0.10;0.00;;;21.90;50.60;;;;;;4982371;28;20034;-82
2021/05/23 11:14:24;;;;;;;1.27;0.30;;;21.80;50.50;;;;;;4982991;28;20026;-82
2021/05/23 11:16:54;;;;;;;3.00;0.85;;;21.70;50.60;;;;;;4968232;28;20049;-82
2021/05/23 11:19:21;;;;;;;4.15;1.08;;;21.80;50.60;;;;;;4987433;28;20042;-88
2021/05/23 11:21:49;;;;;;;5.70;1.13;;;21.90;50.40;;;;;;4973025;28;20033;-83
2021/05/23 11:24:16;;;;;;;4.25;0.77;;;21.90;50.30;;;;;;4972647;28;20388;-80
2021/05/23 11:26:42;;;;;;;4.05;0.73;;;22.00;50.30;;;;;;5005466;28;20034;-76
2021/05/23 11:29:08;;;;;;;1.83;0.52;;;22.10;50.10;;;;;;4972945;28;20500;-77
2021/05/23 11:31:36;;;;;;;4.55;0.28;;;22.20;49.90;;;;;;4981182;28;20035;-77
2021/05/23 11:34:04;;;;;;;1.65;0.10;;;22.40;49.70;;;;;;4974363;28;20366;-77
2021/05/23 11:36:34;;;;;;;0.65;0.17;;;22.50;49.30;;;;;;5021799;28;20368;-77
2021/05/23 11:39:03;;;;;;;0.22;0.10;;;22.60;49.00;;;;;;4979989;28;20484;-78
2021/05/23 11:41:30;;;;;;;4.30;0.00;;;22.70;48.80;;;;;;4977976;28;20388;-80
2021/05/23 11:43:58;;;;;;;0.63;0.10;;;22.70;48.50;;;;;;4986494;28;20033;-87
2021/05/23 11:46:25;;;;;;;0.35;0.10;;;22.70;48.40;;;;;;4971430;28;20042;-88
2021/05/23 11:48:52;;;;;;;0.00;0.00;;;22.80;48.30;;;;;;4972648;28;20023;-89
2021/05/23 11:51:26;;;;;;;0.20;0.00;;;22.70;48.30;;;;;;4988605;28;20023;-90
2021/05/23 11:53:54;;;;;;;0.00;0.00;;;22.50;48.30;;;;;;4951982;28;20042;-91
2021/05/23 11:56:23;;;;;;;0.32;0.03;;;22.40;48.50;;;;;;4949521;28;20035;-84
2021/05/23 11:58:51;;;;;;;0.20;0.10;;;22.30;48.60;;;;;;4955769;28;20404;-83
2021/05/23 12:01:27;;;;;;;2.88;1.02;;;22.30;48.50;;;;;;4972846;28;20393;-82
2021/05/23 12:04:06;;;;;;;5.82;1.40;;;22.40;48.40;;;;;;4968192;28;20035;-91
2021/05/23 12:06:42;;;;;;;3.35;0.88;;;22.50;48.20;;;;;;4983938;28;20034;-90
2021/05/23 12:09:21;;;;;;;0.65;0.20;;;22.60;48.00;;;;;;4972924;28;20031;-91
2021/05/23 12:11:53;;;;;;;3.97;0.75;;;22.70;48.00;;;;;;4973271;28;20045;-91
2021/05/23 12:14:29;;;;;;;1.35;0.60;;;22.80;48.00;;;;;;5005304;28;20054;-91
2021/05/23 12:17:03;;;;;;;0.60;0.08;;;22.90;47.70;;;;;;4988668;28;20041;-90
2021/05/23 12:19:49;;;;;;;0.60;0.20;;;23.00;47.40;;;;;;4988193;28;20061;-82
2021/05/23 12:22:29;;;;;;;3.03;0.60;;;23.10;47.20;;;;;;4956753;28;20038;-81
2021/05/23 12:24:57;;;;;;;2.45;0.63;;;23.20;47.10;;;;;;4986982;28;20053;-81
2021/05/23 12:27:24;;;;;;;0.20;0.00;;;23.10;47.10;;;;;;4992543;28;20065;-81
2021/05/23 12:29:52;;;;;;;0.30;0.10;;;23.00;47.20;;;;;;4980005;28;20492;-81
2021/05/23 12:32:19;;;;;;;0.00;0.00;;;23.10;47.00;;;;;;4983616;28;20506;-81
2021/05/23 12:34:45;;;;;;;0.22;0.10;;;23.10;47.00;;;;;;4959241;28;20045;-81
2021/05/23 12:37:13;;;;;;;0.90;0.10;;;23.10;46.90;;;;;;4976388;28;20050;-80
2021/05/23 12:39:39;;;;;;;0.00;0.00;;;23.20;46.90;;;;;;4972649;28;20047;-81
2021/05/23 12:42:05;;;;;;;0.20;0.00;;;23.20;46.70;;;;;;5007076;28;20030;-81
2021/05/23 12:44:32;;;;;;;1.98;0.28;;;23.20;46.40;;;;;;4972963;28;20127;-79
2021/05/23 12:47:11;;;;;;;0.45;0.20;;;23.20;46.40;;;;;;4971194;28;20031;-81
2021/05/23 12:49:44;;;;;;;0.05;0.00;;;23.20;46.40;;;;;;4971202;28;20023;-81
2021/05/23 12:52:12;;;;;;;0.73;0.10;;;23.20;46.20;;;;;;4970867;28;20043;-80